Time;durP1;ratioP1;P1;durP2;ratioP2;P2;SDS_P1;SDS_P2;PMS_P1;PMS_P2;Temp;Humidity;BMP_temperature;BMP_pressure;BME280_temperature;BME280_humidity;BME280_pressure;Samples;Min_cycle;Max_cycle;Signal;HPM_P1;HPM_P2
2023/10/01 00:00:20;;;;;;;19.73;14.73;;;;;;;;;;4958890;28;20051;-75
2023/10/01 00:02:51;;;;;;;22.30;15.48;;;;;;;;;;4954553;28;20055;-75
2023/10/01 00:05:17;;;;;;;22.05;15.55;;;;;;;;;;4953809;28;20039;-75
2023/10/01 00:07:43;;;;;;;22.30;14.93;;;;;;;;;;4955600;28;20045;-75
2023/10/01 00:10:11;;;;;;;20.83;14.05;;;;;;;;;;4970347;28;20054;-75
2023/10/01 00:12:44;;;;;;;21.80;14.25;;;;;;;;;;4959657;28;20515;-75
2023/10/01 00:15:14;;;;;;;20.02;13.70;;;;;;;;;;4947384;28;20521;-75
2023/10/01 00:17:41;;;;;;;17.17;13.82;;;;;;;;;;4959221;28;20056;-75
2023/10/01 00:20:25;;;;;;;19.08;13.98;;;;;;;;;;4955560;28;20030;-76
2023/10/01 00:23:02;;;;;;;17.38;13.88;;;;;;;;;;4957202;28;20129;-76
2023/10/01 00:25:32;;;;;;;18.77;12.88;;;;;;;;;;4956490;28;20041;-75
2023/10/01 00:27:59;;;;;;;16.55;12.85;;;;;;;;;;4962767;28;20130;-76
2023/10/01 00:30:25;;;;;;;18.23;12.90;;;;;;;;;;4964289;28;20046;-75
2023/10/01 00:32:52;;;;;;;25.20;14.70;;;;;;;;;;4956711;28;20463;-75
2023/10/01 00:35:17;;;;;;;18.52;14.52;;;;;;;;;;4957545;28;20046;-76
2023/10/01 00:37:43;;;;;;;23.52;14.02;;;;;;;;;;4959026;28;20039;-75
2023/10/01 00:40:10;;;;;;;20.63;14.02;;;;;;;;;;4960466;28;20031;-76
2023/10/01 00:42:38;;;;;;;21.35;13.90;;;;;;;;;;4956518;28;20680;-76
2023/10/01 00:45:07;;;;;;;20.13;14.40;;;;;;;;;;4954685;28;20069;-76
2023/10/01 00:47:35;;;;;;;22.45;14.15;;;;;;;;;;4960405;28;20051;-76
2023/10/01 00:50:01;;;;;;;19.20;14.73;;;;;;;;;;4958476;28;20043;-76
2023/10/01 00:52:28;;;;;;;21.27;14.60;;;;;;;;;;4959242;28;20038;-76
2023/10/01 00:54:57;;;;;;;26.65;15.10;;;;;;;;;;4955857;28;20390;-76
2023/10/01 00:57:23;;;;;;;28.77;14.55;;;;;;;;;;4961438;28;20065;-76
2023/10/01 00:59:48;;;;;;;17.77;13.82;;;;;;;;;;4941652;28;20465;-76
2023/10/01 01:02:15;;;;;;;21.13;14.13;;;;;;;;;;4952894;28;20070;-76
2023/10/01 01:05:06;;;;;;;21.63;14.07;;;;;;;;;;4959023;28;20512;-76
2023/10/01 01:07:32;;;;;;;;;;;;;;;;;;4957128;28;20030;-74
2023/10/01 01:10:00;;;;;;;21.30;15.32;;;;;;;;;;4970341;28;19921;-76
2023/10/01 01:12:27;;;;;;;26.47;15.53;;;;;;;;;;4937655;28;20037;-76
2023/10/01 01:14:54;;;;;;;18.40;14.73;;;;;;;;;;4961064;28;20823;-76
2023/10/01 01:17:21;;;;;;;23.95;14.55;;;;;;;;;;4948982;28;20759;-76
2023/10/01 01:19:55;;;;;;;19.63;14.18;;;;;;;;;;4963440;28;20035;-76
2023/10/01 01:22:29;;;;;;;19.17;14.30;;;;;;;;;;4962413;28;20986;-76
2023/10/01 01:25:00;;;;;;;27.33;14.38;;;;;;;;;;4962830;28;20030;-76
2023/10/01 01:27:31;;;;;;;21.80;14.73;;;;;;;;;;4954665;28;20051;-76
2023/10/01 01:29:58;;;;;;;26.10;14.38;;;;;;;;;;4961183;28;20121;-75
2023/10/01 01:32:24;;;;;;;18.60;14.20;;;;;;;;;;4961890;28;20760;-76
2023/10/01 01:34:54;;;;;;;25.75;16.15;;;;;;;;;;4950585;28;20034;-75
2023/10/01 01:37:30;;;;;;;22.77;15.02;;;;;;;;;;4960971;28;20039;-76
2023/10/01 01:39:57;;;;;;;17.88;13.25;;;;;;;;;;4944268;28;20046;-75
2023/10/01 01:42:24;;;;;;;23.75;15.23;;;;;;;;;;4959533;28;20031;-76
2023/10/01 01:45:15;;;;;;;17.77;14.30;;;;;;;;;;4955319;28;20039;-76
2023/10/01 01:47:39;;;;;;;22.35;15.98;;;;;;;;;;4952368;28;20034;-76
2023/10/01 01:50:19;;;;;;;22.08;14.70;;;;;;;;;;4959254;28;20097;-76
2023/10/01 01:52:47;;;;;;;22.23;15.27;;;;;;;;;;4960087;28;20039;-75
2023/10/01 01:55:23;;;;;;;23.08;15.35;;;;;;;;;;4929998;28;20130;-75
2023/10/01 01:58:04;;;;;;;21.20;15.27;;;;;;;;;;4968472;28;20035;-76
2023/10/01 02:00:34;;;;;;;27.48;16.02;;;;;;;;;;4979810;28;20137;-75
2023/10/01 02:03:17;;;;;;;25.98;16.27;;;;;;;;;;4963081;28;20039;-75
2023/10/01 02:05:47;;;;;;;20.17;13.63;;;;;;;;;;4962817;28;20023;-75
2023/10/01 02:08:35;;;;;;;17.25;13.48;;;;;;;;;;4965582;28;20061;-75
2023/10/01 02:11:09;;;;;;;19.92;14.75;;;;;;;;;;4953255;28;20419;-75
2023/10/01 02:13:40;;;;;;;19.90;14.35;;;;;;;;;;4966799;28;20119;-75
2023/10/01 02:18:58;;;;;;;19.70;13.45;;;;;;;;;;4962877;28;20527;-76
2023/10/01 02:21:42;;;;;;;17.42;13.05;;;;;;;;;;4951960;28;20081;-76
2023/10/01 02:24:22;;;;;;;23.88;15.63;;;;;;;;;;4953691;28;20133;-75
2023/10/01 02:27:03;;;;;;;22.48;14.45;;;;;;;;;;4963538;28;20442;-75
2023/10/01 02:29:32;;;;;;;25.50;15.32;;;;;;;;;;4972206;28;20042;-75
2023/10/01 02:32:04;;;;;;;25.95;16.08;;;;;;;;;;4969683;28;20046;-76
2023/10/01 02:34:31;;;;;;;24.80;16.95;;;;;;;;;;4971128;28;20079;-76
2023/10/01 02:36:58;;;;;;;22.52;16.05;;;;;;;;;;4953679;28;20042;-75
2023/10/01 02:39:27;;;;;;;24.05;17.27;;;;;;;;;;4974882;28;20047;-76
2023/10/01 02:44:53;;;;;;;21.20;15.05;;;;;;;;;;4911895;29;20588;-76
2023/10/01 02:47:20;;;;;;;20.80;15.52;;;;;;;;;;4889467;29;20100;-75
2023/10/01 02:49:52;;;;;;;17.98;14.65;;;;;;;;;;4911795;29;20089;-76
2023/10/01 02:52:26;;;;;;;21.23;15.73;;;;;;;;;;4905709;29;20066;-75
2023/10/01 02:54:57;;;;;;;22.10;15.75;;;;;;;;;;4917887;29;20082;-75
2023/10/01 02:57:24;;;;;;;22.15;15.95;;;;;;;;;;4905595;29;20038;-75
2023/10/01 03:00:11;;;;;;;22.60;15.93;;;;;;;;;;4923485;29;20640;-76
2023/10/01 03:02:38;;;;;;;19.63;15.45;;;;;;;;;;4907342;29;20080;-75
2023/10/01 03:05:07;;;;;;;23.70;15.23;;;;;;;;;;4922116;29;20130;-75
2023/10/01 03:07:38;;;;;;;20.88;14.55;;;;;;;;;;4902488;29;20078;-75
2023/10/01 03:10:46;;;;;;;23.65;15.50;;;;;;;;;;4905260;29;20067;-75
2023/10/01 03:13:14;;;;;;;23.48;15.70;;;;;;;;;;4904913;29;20055;-75
2023/10/01 03:15:41;;;;;;;19.38;14.57;;;;;;;;;;4914768;29;20067;-76
2023/10/01 03:25:59;;;;;;;26.23;16.48;;;;;;;;;;4958709;28;20035;-75
2023/10/01 03:28:34;;;;;;;23.90;15.70;;;;;;;;;;4958979;28;20030;-75
2023/10/01 03:31:09;;;;;;;26.77;17.45;;;;;;;;;;4964654;28;20046;-76
2023/10/01 03:33:39;;;;;;;22.45;16.35;;;;;;;;;;4955242;28;20412;-76
2023/10/01 03:36:09;;;;;;;25.33;17.15;;;;;;;;;;4959377;28;20416;-76
2023/10/01 03:38:44;;;;;;;24.55;16.02;;;;;;;;;;4958392;28;20054;-76
2023/10/01 03:41:52;;;;;;;25.95;15.73;;;;;;;;;;4957172;28;20062;-75
2023/10/01 03:44:09;;;;;;;26.92;17.70;;;;;;;;;;4957802;28;20522;-76
2023/10/01 03:46:42;;;;;;;27.10;16.40;;;;;;;;;;4957407;28;20114;-76
2023/10/01 03:51:52;;;;;;;26.75;17.23;;;;;;;;;;4962963;28;20400;-76
2023/10/01 03:54:19;;;;;;;22.83;15.10;;;;;;;;;;4961042;28;20043;-76
2023/10/01 03:56:56;;;;;;;23.70;15.30;;;;;;;;;;4959243;28;20039;-76
2023/10/01 03:59:32;;;;;;;24.65;15.18;;;;;;;;;;4953484;28;20042;-76
2023/10/01 04:01:58;;;;;;;25.48;16.75;;;;;;;;;;4961472;28;20038;-76
2023/10/01 04:04:31;;;;;;;24.63;16.23;;;;;;;;;;4957278;28;20042;-76
2023/10/01 04:07:00;;;;;;;28.17;17.48;;;;;;;;;;4960512;28;20037;-76
2023/10/01 04:09:28;;;;;;;26.83;15.85;;;;;;;;;;4961577;28;20047;-76
2023/10/01 04:12:18;;;;;;;29.37;16.17;;;;;;;;;;4964709;28;20034;-76
2023/10/01 04:14:49;;;;;;;28.90;15.90;;;;;;;;;;4963601;28;20397;-76
2023/10/01 04:17:18;;;;;;;20.90;14.48;;;;;;;;;;4958379;28;20043;-76
2023/10/01 04:19:44;;;;;;;;;;;;;;;;;;4961333;28;20038;-76
2023/10/01 04:22:10;;;;;;;15.70;12.60;;;;;;;;;;4956706;28;19933;-76
2023/10/01 04:24:36;;;;;;;22.80;15.00;;;;;;;;;;4963498;28;20038;-76
2023/10/01 04:27:18;;;;;;;24.35;15.05;;;;;;;;;;4963457;28;20520;-75
2023/10/01 04:29:57;;;;;;;19.70;15.18;;;;;;;;;;4961321;28;20117;-75
2023/10/01 04:32:27;;;;;;;26.67;16.17;;;;;;;;;;4959639;28;20280;-76
2023/10/01 04:35:00;;;;;;;20.33;15.48;;;;;;;;;;4959399;28;20121;-76
2023/10/01 04:37:40;;;;;;;21.35;14.75;;;;;;;;;;4956945;28;20037;-76
2023/10/01 04:43:03;;;;;;;22.02;15.55;;;;;;;;;;4962781;28;20053;-76
2023/10/01 04:45:36;;;;;;;23.48;14.95;;;;;;;;;;4959431;28;20053;-75
2023/10/01 04:48:15;;;;;;;23.77;16.08;;;;;;;;;;4963259;28;20085;-76
2023/10/01 04:50:46;;;;;;;;;;;;;;;;;;4963664;28;20848;-76
2023/10/01 04:53:13;;;;;;;25.35;15.85;;;;;;;;;;4960134;28;19960;-76
2023/10/01 04:55:42;;;;;;;22.50;16.08;;;;;;;;;;4962601;28;20038;-76
2023/10/01 04:58:15;;;;;;;20.60;14.40;;;;;;;;;;4962784;28;20779;-76
2023/10/01 05:00:42;;;;;;;23.70;15.75;;;;;;;;;;4958539;28;20908;-76
2023/10/01 05:03:10;;;;;;;20.98;13.98;;;;;;;;;;4951826;28;20042;-76
2023/10/01 05:05:37;;;;;;;13.65;11.55;;;;;;;;;;4963986;28;20463;-77
2023/10/01 05:08:04;;;;;;;23.13;16.23;;;;;;;;;;4958134;28;20050;-77
2023/10/01 05:10:50;;;;;;;30.40;15.98;;;;;;;;;;4963460;28;20145;-77
2023/10/01 05:13:19;;;;;;;22.75;15.00;;;;;;;;;;4957791;28;20085;-76
2023/10/01 05:15:49;;;;;;;23.55;16.45;;;;;;;;;;4961596;28;20035;-77
2023/10/01 05:18:16;;;;;;;;;;;;;;;;;;4959673;28;20041;-76
2023/10/01 05:20:42;;;;;;;19.40;13.27;;;;;;;;;;4967276;28;19953;-76
2023/10/01 05:23:08;;;;;;;25.42;16.30;;;;;;;;;;4964619;28;20121;-76
2023/10/01 05:25:33;;;;;;;25.60;15.13;;;;;;;;;;4952509;28;20095;-77
2023/10/01 05:28:03;;;;;;;25.98;15.98;;;;;;;;;;4949445;28;20045;-76
2023/10/01 05:30:35;;;;;;;31.83;16.45;;;;;;;;;;4959720;28;20030;-76
2023/10/01 05:33:05;;;;;;;20.25;14.20;;;;;;;;;;4964924;28;20038;-76
2023/10/01 05:35:44;;;;;;;28.20;15.50;;;;;;;;;;4965904;28;20042;-76
2023/10/01 05:38:11;;;;;;;25.25;15.90;;;;;;;;;;4961389;28;20035;-77
2023/10/01 05:40:40;;;;;;;26.05;17.55;;;;;;;;;;4972529;28;20118;-77
2023/10/01 05:43:13;;;;;;;25.85;16.15;;;;;;;;;;4967371;28;20045;-77
2023/10/01 05:45:50;;;;;;;28.38;16.02;;;;;;;;;;4959902;28;20054;-77
2023/10/01 05:48:19;;;;;;;21.00;15.13;;;;;;;;;;4965207;28;20508;-76
2023/10/01 05:50:46;;;;;;;;;;;;;;;;;;4968015;28;20035;-77
2023/10/01 05:53:13;;;;;;;22.33;15.02;;;;;;;;;;4982110;28;19922;-77
2023/10/01 05:55:41;;;;;;;20.58;15.45;;;;;;;;;;4967762;28;20342;-76
2023/10/01 05:58:12;;;;;;;25.05;16.08;;;;;;;;;;4969957;28;20125;-76
2023/10/01 06:00:53;;;;;;;23.73;15.70;;;;;;;;;;4960192;28;20118;-76
2023/10/01 06:03:19;;;;;;;21.60;15.00;;;;;;;;;;4959207;28;20077;-75
2023/10/01 06:05:57;;;;;;;23.83;16.70;;;;;;;;;;4951192;28;20039;-78
2023/10/01 06:08:32;;;;;;;25.88;15.75;;;;;;;;;;4955829;28;20117;-75
2023/10/01 06:11:04;;;;;;;19.92;15.02;;;;;;;;;;4965103;28;20393;-75
2023/10/01 06:13:37;;;;;;;20.42;15.90;;;;;;;;;;4966412;28;20062;-76
2023/10/01 06:16:16;;;;;;;22.10;15.43;;;;;;;;;;4961475;28;20043;-76
2023/10/01 06:18:51;;;;;;;20.80;14.80;;;;;;;;;;4965129;28;20039;-76
2023/10/01 06:21:26;;;;;;;24.85;15.18;;;;;;;;;;4964924;28;20536;-75
2023/10/01 06:23:53;;;;;;;22.45;15.32;;;;;;;;;;4963961;28;20038;-76
2023/10/01 06:26:20;;;;;;;21.42;14.85;;;;;;;;;;4966828;28;20882;-75
2023/10/01 06:28:47;;;;;;;23.33;15.07;;;;;;;;;;4950542;28;20070;-75
2023/10/01 06:31:16;;;;;;;20.52;14.52;;;;;;;;;;4967375;28;20050;-75
2023/10/01 06:33:45;;;;;;;17.55;14.05;;;;;;;;;;4967667;28;20046;-75
2023/10/01 06:36:15;;;;;;;19.48;13.93;;;;;;;;;;4947107;28;20039;-74
2023/10/01 06:38:41;;;;;;;;;;;;;;;;;;4963276;28;20042;-75
2023/10/01 06:41:13;;;;;;;18.23;12.90;;;;;;;;;;4965003;28;19929;-75
2023/10/01 06:43:48;;;;;;;22.30;13.90;;;;;;;;;;4951191;28;20034;-75
2023/10/01 06:46:19;;;;;;;21.15;14.18;;;;;;;;;;4958918;28;20035;-76
2023/10/01 06:48:50;;;;;;;21.65;14.00;;;;;;;;;;4964768;28;20521;-75
2023/10/01 06:51:24;;;;;;;24.20;13.77;;;;;;;;;;4966783;28;20643;-75
2023/10/01 06:54:05;;;;;;;23.40;14.95;;;;;;;;;;4967017;28;20041;-75
2023/10/01 06:56:35;;;;;;;22.65;15.00;;;;;;;;;;4947177;28;20039;-76
2023/10/01 07:01:46;;;;;;;21.73;13.50;;;;;;;;;;4935409;28;20050;-74
2023/10/01 07:04:17;;;;;;;18.35;13.73;;;;;;;;;;4966494;28;20041;-77
2023/10/01 07:06:44;;;;;;;21.10;14.20;;;;;;;;;;4977410;28;20073;-76
2023/10/01 07:11:57;;;;;;;18.25;13.10;;;;;;;;;;4967401;28;20027;-77
2023/10/01 07:14:43;;;;;;;18.00;13.75;;;;;;;;;;4965194;28;20473;-75
2023/10/01 07:17:18;;;;;;;18.48;12.95;;;;;;;;;;4964336;28;20034;-74
2023/10/01 07:20:00;;;;;;;22.38;13.88;;;;;;;;;;4966975;28;20466;-77
2023/10/01 07:22:26;;;;;;;23.77;14.73;;;;;;;;;;4963795;28;20046;-76
2023/10/01 07:24:53;;;;;;;16.05;12.65;;;;;;;;;;4964168;28;20038;-75
2023/10/01 07:27:18;;;;;;;18.10;12.68;;;;;;;;;;4949517;28;20062;-77
2023/10/01 07:29:44;;;;;;;17.17;12.75;;;;;;;;;;4962354;28;20057;-76
2023/10/01 07:32:12;;;;;;;17.15;13.13;;;;;;;;;;4957774;28;20026;-76
2023/10/01 07:34:48;;;;;;;13.63;11.40;;;;;;;;;;4964066;28;20035;-76
2023/10/01 07:37:23;;;;;;;15.70;12.18;;;;;;;;;;4964138;28;20045;-76
2023/10/01 07:40:08;;;;;;;15.95;11.73;;;;;;;;;;4959035;28;20058;-76
2023/10/01 07:42:46;;;;;;;16.00;12.52;;;;;;;;;;4962864;28;20045;-75
2023/10/01 07:45:16;;;;;;;14.40;12.10;;;;;;;;;;4962034;28;20103;-76
2023/10/01 07:47:43;;;;;;;16.13;12.07;;;;;;;;;;4965168;28;20928;-76
2023/10/01 07:50:12;;;;;;;14.70;11.75;;;;;;;;;;4959722;28;20030;-76
2023/10/01 07:52:40;;;;;;;;;;;;;;;;;;4947203;28;20167;-76
2023/10/01 07:57:52;;;;;;;14.55;11.13;;;;;;;;;;4959976;28;20168;-76
2023/10/01 08:00:28;;;;;;;15.25;12.45;;;;;;;;;;4962908;28;20031;-76
2023/10/01 08:03:45;;;;;;;14.80;11.48;;;;;;;;;;4966712;28;20041;-76
2023/10/01 08:05:47;;;;;;;14.35;11.55;;;;;;;;;;4958864;28;20054;-76
2023/10/01 08:08:13;;;;;;;14.43;11.43;;;;;;;;;;4965304;28;20050;-76
2023/10/01 08:10:40;;;;;;;18.73;11.18;;;;;;;;;;4962097;28;20054;-76
2023/10/01 08:13:23;;;;;;;13.30;11.88;;;;;;;;;;4948412;28;20042;-76
2023/10/01 08:16:01;;;;;;;19.73;11.18;;;;;;;;;;4958303;28;20332;-76
2023/10/01 08:18:39;;;;;;;16.75;11.13;;;;;;;;;;4949835;28;20042;-75
2023/10/01 08:21:15;;;;;;;13.90;11.00;;;;;;;;;;4961548;28;20038;-76
2023/10/01 08:23:48;;;;;;;17.13;11.15;;;;;;;;;;4957461;28;20035;-75
2023/10/01 08:29:07;;;;;;;14.23;11.13;;;;;;;;;;4974777;28;20049;-76
2023/10/01 08:34:22;;;;;;;15.20;10.65;;;;;;;;;;4956580;28;20081;-76
2023/10/01 08:36:56;;;;;;;15.63;10.93;;;;;;;;;;4928375;28;20504;-76
2023/10/01 08:39:33;;;;;;;17.30;11.68;;;;;;;;;;4956207;28;20246;-76
2023/10/01 08:42:08;;;;;;;14.77;10.60;;;;;;;;;;4946343;28;20074;-76
2023/10/01 08:44:46;;;;;;;17.05;10.60;;;;;;;;;;4953234;28;20038;-76
2023/10/01 08:47:35;;;;;;;14.43;10.68;;;;;;;;;;4949893;28;20030;-76
2023/10/01 08:50:28;;;;;;;16.08;10.82;;;;;;;;;;4954571;28;20098;-76
2023/10/01 08:53:18;;;;;;;14.70;10.60;;;;;;;;;;4942783;28;20098;-76
2023/10/01 08:58:25;;;;;;;15.50;10.37;;;;;;;;;;4950379;28;20129;-76
2023/10/01 09:01:10;;;;;;;15.40;10.40;;;;;;;;;;4965341;28;20304;-75
2023/10/01 09:03:36;;;;;;;13.23;10.20;;;;;;;;;;4952817;28;20038;-76
2023/10/01 09:06:03;;;;;;;14.68;10.10;;;;;;;;;;4955321;28;20421;-76
2023/10/01 09:08:42;;;;;;;13.77;10.40;;;;;;;;;;4953922;28;20038;-76
2023/10/01 09:11:13;;;;;;;14.20;10.80;;;;;;;;;;4957689;28;20683;-76
2023/10/01 09:14:14;;;;;;;16.45;10.52;;;;;;;;;;4933727;28;20065;-76
2023/10/01 09:16:44;;;;;;;18.77;10.80;;;;;;;;;;4956380;28;20034;-75
2023/10/01 09:19:31;;;;;;;14.52;10.32;;;;;;;;;;4964587;28;20093;-75
2023/10/01 09:22:10;;;;;;;15.13;10.88;;;;;;;;;;4952451;28;20046;-75
2023/10/01 09:24:39;;;;;;;15.68;10.25;;;;;;;;;;4957053;28;20027;-76
2023/10/01 09:27:09;;;;;;;15.07;10.50;;;;;;;;;;4951222;28;20074;-76
2023/10/01 09:29:46;;;;;;;14.35;10.15;;;;;;;;;;4958937;28;20529;-76
2023/10/01 09:32:13;;;;;;;13.32;10.32;;;;;;;;;;4955046;28;20039;-79
2023/10/01 09:34:53;;;;;;;17.55;10.90;;;;;;;;;;4958168;28;20037;-77
2023/10/01 09:37:42;;;;;;;13.05;9.63;;;;;;;;;;4955526;28;20042;-78
2023/10/01 09:42:57;;;;;;;15.85;10.45;;;;;;;;;;4970239;28;20512;-78
2023/10/01 09:45:41;;;;;;;13.98;10.80;;;;;;;;;;4946720;28;20141;-75
2023/10/01 09:48:23;;;;;;;11.68;9.70;;;;;;;;;;4956199;28;20070;-78
2023/10/01 09:50:57;;;;;;;16.05;10.40;;;;;;;;;;4957160;28;20143;-77
2023/10/01 09:53:26;;;;;;;14.57;11.13;;;;;;;;;;4959250;28;20050;-79
2023/10/01 09:55:59;;;;;;;14.52;10.55;;;;;;;;;;4955625;28;20038;-77
2023/10/01 09:58:24;;;;;;;16.38;11.30;;;;;;;;;;4956753;28;20039;-77
2023/10/01 10:01:08;;;;;;;14.70;10.80;;;;;;;;;;4939832;28;20042;-76
2023/10/01 10:03:37;;;;;;;16.67;10.90;;;;;;;;;;4939260;28;20034;-79
2023/10/01 10:06:09;;;;;;;14.85;10.50;;;;;;;;;;4955690;28;20035;-80
2023/10/01 10:08:36;;;;;;;14.02;10.52;;;;;;;;;;4953185;28;20121;-78
2023/10/01 10:11:06;;;;;;;14.98;10.82;;;;;;;;;;4940709;28;20049;-78
2023/10/01 10:13:36;;;;;;;17.55;10.95;;;;;;;;;;4950392;28;20029;-76
2023/10/01 10:19:20;;;;;;;17.00;10.50;;;;;;;;;;4953707;28;20031;-76
2023/10/01 10:24:29;;;;;;;13.15;9.77;;;;;;;;;;4956330;28;20034;-78
2023/10/01 10:27:08;;;;;;;13.23;10.30;;;;;;;;;;4955318;28;20035;-79
2023/10/01 10:29:46;;;;;;;12.98;10.20;;;;;;;;;;4953514;28;20993;-79
2023/10/01 10:32:24;;;;;;;13.33;10.27;;;;;;;;;;4969418;28;20579;-76
2023/10/01 10:35:14;;;;;;;13.82;10.10;;;;;;;;;;4960568;28;20092;-77
2023/10/01 10:37:43;;;;;;;14.80;10.35;;;;;;;;;;4955697;28;20045;-76
2023/10/01 10:40:12;;;;;;;14.43;10.77;;;;;;;;;;4939696;28;20512;-77
2023/10/01 10:42:40;;;;;;;15.80;10.82;;;;;;;;;;4960429;28;20046;-78
2023/10/01 10:45:21;;;;;;;14.40;10.95;;;;;;;;;;4960355;28;20061;-76
2023/10/01 10:48:07;;;;;;;13.77;10.23;;;;;;;;;;4958190;28;20039;-78
2023/10/01 10:50:45;;;;;;;14.95;10.70;;;;;;;;;;4965938;28;20054;-76
2023/10/01 10:53:20;;;;;;;;;;;;;;;;;;4963356;28;20050;-79
2023/10/01 10:56:15;;;;;;;14.90;10.00;;;;;;;;;;4962739;28;19918;-76
2023/10/01 10:59:01;;;;;;;14.48;10.40;;;;;;;;;;4963513;28;20054;-79
2023/10/01 11:01:43;;;;;;;13.25;9.95;;;;;;;;;;4964041;28;20034;-77
2023/10/01 11:04:10;;;;;;;13.02;9.80;;;;;;;;;;4963953;28;20465;-77
2023/10/01 11:07:01;;;;;;;17.77;10.73;;;;;;;;;;4962328;28;20046;-77
2023/10/01 11:09:29;;;;;;;13.65;10.55;;;;;;;;;;4959978;28;20046;-76
2023/10/01 11:12:00;;;;;;;16.30;10.73;;;;;;;;;;4963815;28;20019;-75
2023/10/01 11:15:19;;;;;;;15.73;10.23;;;;;;;;;;4971213;28;20117;-78
2023/10/01 11:17:59;;;;;;;14.32;9.88;;;;;;;;;;4970611;28;20030;-76
2023/10/01 11:20:31;;;;;;;13.48;10.18;;;;;;;;;;4960623;28;20201;-75
2023/10/01 11:22:57;;;;;;;13.68;9.48;;;;;;;;;;4957914;28;20663;-75
2023/10/01 11:25:23;;;;;;;16.40;9.95;;;;;;;;;;4962328;28;20134;-75
2023/10/01 11:28:08;;;;;;;15.70;10.70;;;;;;;;;;4960766;28;20047;-76
2023/10/01 11:30:43;;;;;;;16.05;10.70;;;;;;;;;;4956358;28;20566;-76
2023/10/01 11:36:06;;;;;;;17.98;10.88;;;;;;;;;;4960916;28;20038;-76
2023/10/01 11:38:34;;;;;;;16.05;10.95;;;;;;;;;;4959260;28;20046;-75
2023/10/01 11:41:09;;;;;;;13.57;10.52;;;;;;;;;;4958943;28;20038;-76
2023/10/01 11:43:42;;;;;;;15.68;11.13;;;;;;;;;;4958291;28;20030;-76
2023/10/01 11:46:24;;;;;;;17.13;10.88;;;;;;;;;;4959563;28;20535;-75
2023/10/01 11:49:15;;;;;;;13.65;10.00;;;;;;;;;;4956509;28;20448;-76
2023/10/01 11:51:45;;;;;;;13.32;10.20;;;;;;;;;;4958222;28;20035;-75
2023/10/01 11:54:13;;;;;;;16.48;10.35;;;;;;;;;;4956203;28;20034;-75
2023/10/01 11:57:07;;;;;;;14.48;11.10;;;;;;;;;;4957839;28;20050;-76
2023/10/01 11:59:36;;;;;;;14.85;11.60;;;;;;;;;;4956611;28;20054;-75
2023/10/01 12:02:43;;;;;;;16.15;11.05;;;;;;;;;;4973149;28;20070;-78
2023/10/01 12:05:13;;;;;;;14.18;10.88;;;;;;;;;;4978387;28;20552;-76
2023/10/01 12:07:40;;;;;;;18.05;12.02;;;;;;;;;;4956118;28;20035;-74
2023/10/01 12:10:24;;;;;;;15.68;11.18;;;;;;;;;;4958370;28;20049;-75
2023/10/01 12:13:11;;;;;;;15.23;11.80;;;;;;;;;;4973192;28;20042;-76
2023/10/01 12:15:50;;;;;;;14.80;11.55;;;;;;;;;;4950237;28;20070;-74
2023/10/01 12:18:17;;;;;;;18.73;12.23;;;;;;;;;;4956535;28;20031;-75
2023/10/01 12:20:55;;;;;;;16.40;11.93;;;;;;;;;;4971905;28;20069;-76
2023/10/01 12:23:22;;;;;;;20.98;12.15;;;;;;;;;;4950170;28;20035;-76
2023/10/01 12:28:31;;;;;;;17.05;11.68;;;;;;;;;;4971182;28;20031;-75
2023/10/01 12:31:09;;;;;;;;;;;;;;;;;;4960634;28;20041;-75
2023/10/01 12:33:46;;;;;;;16.23;12.50;;;;;;;;;;4975862;28;19914;-75
2023/10/01 12:36:42;;;;;;;15.43;12.18;;;;;;;;;;4973317;28;20117;-76
2023/10/01 12:41:56;;;;;;;16.13;12.38;;;;;;;;;;4964976;28;20049;-75
2023/10/01 12:44:36;;;;;;;14.98;12.20;;;;;;;;;;4959469;28;20039;-76
2023/10/01 12:47:09;;;;;;;18.52;12.27;;;;;;;;;;4961818;28;20133;-76
2023/10/01 12:49:36;;;;;;;13.63;11.50;;;;;;;;;;4964830;28;20086;-76
2023/10/01 12:52:04;;;;;;;15.50;12.17;;;;;;;;;;4952455;28;20539;-76
2023/10/01 12:54:36;;;;;;;16.30;11.88;;;;;;;;;;4962429;28;20046;-76
2023/10/01 12:57:22;;;;;;;12.85;11.40;;;;;;;;;;4960913;28;20344;-76
2023/10/01 13:02:45;;;;;;;15.10;11.93;;;;;;;;;;4960268;28;20494;-75
2023/10/01 13:05:21;;;;;;;14.15;11.75;;;;;;;;;;4961984;28;20106;-76
2023/10/01 13:07:52;;;;;;;14.15;12.35;;;;;;;;;;4962571;28;20034;-76
2023/10/01 13:10:19;;;;;;;16.30;12.18;;;;;;;;;;4953590;28;20082;-76
2023/10/01 13:12:59;;;;;;;15.65;12.45;;;;;;;;;;4961145;28;20023;-75
2023/10/01 13:15:31;;;;;;;15.60;12.20;;;;;;;;;;4979602;28;20521;-75
2023/10/01 13:18:01;;;;;;;16.35;12.15;;;;;;;;;;4960741;28;20042;-76
2023/10/01 13:20:31;;;;;;;15.52;12.43;;;;;;;;;;4963549;28;20117;-76
2023/10/01 13:23:06;;;;;;;17.63;12.52;;;;;;;;;;4963609;28;20027;-75
2023/10/01 13:25:36;;;;;;;15.00;11.85;;;;;;;;;;4964147;28;20129;-75
2023/10/01 13:28:06;;;;;;;14.00;11.65;;;;;;;;;;4957803;28;20039;-75
2023/10/01 13:33:23;;;;;;;14.07;11.20;;;;;;;;;;4961727;28;20089;-75
2023/10/01 13:35:58;;;;;;;12.90;11.45;;;;;;;;;;4963924;28;20046;-76
2023/10/01 14:09:15;;;;;;;13.52;11.32;;;;;;;;;;4971924;28;20109;-76
2023/10/01 14:11:41;;;;;;;15.00;11.32;;;;;;;;;;4973414;28;20031;-75
2023/10/01 14:14:08;;;;;;;15.88;11.27;;;;;;;;;;4966576;28;20045;-75
2023/10/01 14:17:13;;;;;;;14.23;11.18;;;;;;;;;;4971351;28;20195;-74
2023/10/01 14:19:51;;;;;;;16.45;11.10;;;;;;;;;;4951838;28;20614;-74
2023/10/01 14:22:25;;;;;;;15.18;12.40;;;;;;;;;;4943581;28;20058;-75
2023/10/01 14:25:20;;;;;;;14.55;11.75;;;;;;;;;;4921704;28;20069;-75
2023/10/01 14:27:50;;;;;;;14.48;11.68;;;;;;;;;;4930279;28;20059;-75
2023/10/01 14:30:25;;;;;;;14.88;12.05;;;;;;;;;;4949940;28;20071;-75
2023/10/01 14:32:51;;;;;;;16.25;11.57;;;;;;;;;;4944747;28;20555;-74
2023/10/01 14:35:17;;;;;;;14.45;10.90;;;;;;;;;;4951112;28;20152;-74
2023/10/01 14:37:55;;;;;;;14.18;11.18;;;;;;;;;;4944979;28;20062;-74
2023/10/01 14:40:24;;;;;;;14.38;11.73;;;;;;;;;;4943390;28;20121;-75
2023/10/01 14:42:58;;;;;;;15.98;12.18;;;;;;;;;;4942744;28;20146;-74
2023/10/01 14:45:33;;;;;;;14.05;11.05;;;;;;;;;;4946108;28;20039;-75
2023/10/01 14:48:08;;;;;;;12.65;10.85;;;;;;;;;;4945022;28;20685;-75
2023/10/01 14:50:40;;;;;;;13.93;10.70;;;;;;;;;;4930504;28;20051;-75
2023/10/01 14:53:12;;;;;;;15.13;11.57;;;;;;;;;;4948271;28;20045;-74
2023/10/01 14:55:42;;;;;;;13.30;11.30;;;;;;;;;;4947236;28;20098;-76
2023/10/01 14:58:12;;;;;;;16.15;10.82;;;;;;;;;;4950766;28;20042;-74
2023/10/01 15:00:56;;;;;;;13.73;11.32;;;;;;;;;;4968999;28;20034;-74
2023/10/01 15:03:33;;;;;;;14.07;10.75;;;;;;;;;;4958159;28;20559;-75
2023/10/01 15:06:04;;;;;;;15.13;11.45;;;;;;;;;;4958759;28;20491;-75
2023/10/01 15:08:36;;;;;;;12.82;10.70;;;;;;;;;;4957822;28;20050;-74
2023/10/01 15:11:11;;;;;;;15.45;11.10;;;;;;;;;;4954428;28;20043;-74
2023/10/01 15:13:48;;;;;;;12.40;10.90;;;;;;;;;;4956591;28;20563;-75
2023/10/01 15:16:16;;;;;;;12.15;10.80;;;;;;;;;;4958396;28;20038;-75
2023/10/01 15:18:44;;;;;;;14.23;11.63;;;;;;;;;;4960373;28;20045;-75
2023/10/01 15:21:20;;;;;;;12.90;10.73;;;;;;;;;;4960243;28;20635;-75
2023/10/01 15:23:51;;;;;;;13.30;11.18;;;;;;;;;;4960216;28;20067;-77
2023/10/01 15:26:23;;;;;;;12.55;10.40;;;;;;;;;;4942668;28;20046;-75
2023/10/01 15:28:52;;;;;;;12.40;10.75;;;;;;;;;;4954904;28;20039;-75
2023/10/01 15:31:33;;;;;;;13.48;10.23;;;;;;;;;;4954144;28;20039;-74
2023/10/01 15:34:18;;;;;;;13.50;10.52;;;;;;;;;;4955568;28;20548;-75
2023/10/01 15:36:48;;;;;;;13.73;10.40;;;;;;;;;;4949574;28;20042;-74
2023/10/01 15:45:15;;;;;;;13.70;10.57;;;;;;;;;;4962557;28;20030;-75
2023/10/01 15:47:43;;;;;;;13.80;10.60;;;;;;;;;;4955136;28;20062;-76
2023/10/01 15:50:21;;;;;;;13.10;10.80;;;;;;;;;;4946732;28;20038;-75
2023/10/01 15:52:51;;;;;;;14.70;11.00;;;;;;;;;;4951541;28;20049;-74
2023/10/01 15:55:20;;;;;;;14.43;10.50;;;;;;;;;;4953358;28;20760;-74
2023/10/01 15:57:54;;;;;;;13.40;10.82;;;;;;;;;;4954319;28;20065;-73
2023/10/01 16:00:49;;;;;;;13.32;11.48;;;;;;;;;;4954691;28;20118;-74
2023/10/01 16:03:52;;;;;;;12.65;10.30;;;;;;;;;;4963691;28;20026;-74
2023/10/01 16:06:21;;;;;;;17.33;11.20;;;;;;;;;;4955635;28;20198;-75
2023/10/01 16:08:48;;;;;;;14.18;11.60;;;;;;;;;;4955412;28;20035;-74
2023/10/01 16:11:13;;;;;;;13.57;10.82;;;;;;;;;;4953940;28;20066;-74
2023/10/01 16:13:40;;;;;;;14.60;11.02;;;;;;;;;;4961233;28;20038;-75
2023/10/01 16:16:07;;;;;;;12.23;10.80;;;;;;;;;;4956617;28;20094;-76
2023/10/01 16:18:41;;;;;;;12.02;10.80;;;;;;;;;;4960875;28;20038;-75
2023/10/01 16:21:16;;;;;;;13.38;11.50;;;;;;;;;;4954520;28;20035;-74
2023/10/01 16:23:48;;;;;;;14.23;11.80;;;;;;;;;;4958247;28;20061;-74
2023/10/01 16:26:14;;;;;;;12.25;10.82;;;;;;;;;;4960309;28;20043;-75
2023/10/01 16:28:53;;;;;;;12.52;10.85;;;;;;;;;;4956586;28;20053;-73
2023/10/01 16:31:19;;;;;;;14.85;10.80;;;;;;;;;;4960851;28;20058;-74